Serge-Frolow Ile Tromelin, Reunion
Current Conditions -  °F | °C
As of 10:50 AM on Thursday 23 Oct 2014 (Local Time) from FMEE Reporting Station
Scattered Clouds Scattered Clouds  
Wind Chill: 79°   Ceiling: Unl
Heat Index: 82°   Visibility: 6mi
Dew Point: 72°   Wind: 22mph
Humidity: 78%   Direction: 110°ESE
Pressure: 30.09"   Gusts: NA
Location:  15.88°S, 54.52°E
Report Text: FMEE 230650Z 11019KT 9999 SCT026 26/22 Q1019 NOSIG
Loading
Personal Weather Stations






























Interactive Weather Map
Tropical Storm Tracking
New forecast layout! Learn more

10-Day Weather Forecast

Advertisements
Track Severe Weather on mobile